Time;durP1;ratioP1;P1;durP2;ratioP2;P2;SDS_P1;SDS_P2;PMS_P1;PMS_P2;Temp;Humidity;BMP_temperature;BMP_pressure;BME280_temperature;BME280_humidity;BME280_pressure;Samples;Min_cycle;Max_cycle;Signal;HPM_P1;HPM_P2
2022/01/09 00:00:36;;;;;;;21.30;14.93;;;22.40;27.10;;;;;;5047178;28;20041;-65
2022/01/09 00:03:04;;;;;;;18.35;14.65;;;22.50;27.20;;;;;;5046969;28;20056;-65
2022/01/09 00:05:32;;;;;;;19.83;14.52;;;22.40;27.10;;;;;;5049204;28;20481;-64
2022/01/09 00:07:59;;;;;;;21.00;13.65;;;22.40;27.10;;;;;;5048456;28;20052;-65
2022/01/09 00:10:28;;;;;;;19.65;14.52;;;22.40;27.10;;;;;;5047114;28;20453;-65
2022/01/09 00:12:56;;;;;;;19.45;14.07;;;22.40;27.20;;;;;;5048462;28;20059;-65
2022/01/09 00:15:24;;;;;;;19.67;14.00;;;22.40;27.20;;;;;;5081313;28;20049;-65
2022/01/09 00:17:51;;;;;;;18.90;14.50;;;22.40;27.20;;;;;;5048346;28;20102;-65
2022/01/09 00:20:18;;;;;;;19.33;13.90;;;22.40;27.20;;;;;;5047016;28;20094;-65
2022/01/09 00:22:48;;;;;;;18.63;14.10;;;22.40;27.20;;;;;;5047699;28;20057;-65
2022/01/09 00:25:19;;;;;;;17.30;13.68;;;22.30;27.20;;;;;;5049117;28;20527;-65
2022/01/09 00:27:47;;;;;;;19.27;14.23;;;22.30;27.20;;;;;;5048126;28;20660;-65
2022/01/09 00:30:17;;;;;;;19.80;13.80;;;22.30;27.20;;;;;;5047514;28;20056;-65
2022/01/09 00:32:45;;;;;;;17.00;12.80;;;22.30;27.20;;;;;;5047853;28;20110;-65
2022/01/09 00:35:14;;;;;;;21.02;14.75;;;22.30;27.20;;;;;;5049297;28;20067;-65
2022/01/09 00:37:42;;;;;;;18.95;13.65;;;22.40;27.30;;;;;;5048450;28;20110;-65
2022/01/09 00:40:12;;;;;;;20.70;14.93;;;22.30;27.20;;;;;;5047790;28;20076;-65
2022/01/09 00:42:39;;;;;;;18.65;13.23;;;22.30;27.20;;;;;;5051549;28;20409;-65
2022/01/09 00:45:08;;;;;;;20.35;13.65;;;22.40;27.30;;;;;;5053181;28;20124;-65
2022/01/09 00:47:35;;;;;;;17.83;13.85;;;22.30;27.20;;;;;;5052394;28;20102;-65
2022/01/09 00:50:03;;;;;;;17.38;13.27;;;22.30;27.20;;;;;;5050527;28;20314;-65
2022/01/09 00:52:30;;;;;;;18.60;13.25;;;22.30;27.30;;;;;;5050954;28;20088;-65
2022/01/09 00:54:58;;;;;;;17.58;13.10;;;22.30;27.20;;;;;;5053227;28;20449;-65
2022/01/09 00:57:25;;;;;;;16.45;12.63;;;22.30;27.20;;;;;;5052608;28;20045;-65
2022/01/09 00:59:52;;;;;;;16.25;11.98;;;22.30;27.70;;;;;;5050951;28;20045;-68
2022/01/09 01:02:19;;;;;;;18.95;13.00;;;22.30;27.20;;;;;;5083009;28;20444;-65
2022/01/09 01:04:49;;;;;;;18.33;13.25;;;22.30;27.20;;;;;;5052711;28;20123;-65
2022/01/09 01:07:16;;;;;;;17.67;12.43;;;22.30;27.20;;;;;;5052406;28;20175;-65
2022/01/09 01:09:43;;;;;;;16.00;12.00;;;22.30;27.30;;;;;;5050090;28;20324;-65
2022/01/09 01:12:10;;;;;;;17.55;12.38;;;22.30;27.20;;;;;;5050493;28;20049;-65
2022/01/09 01:14:38;;;;;;;19.30;13.05;;;22.30;27.30;;;;;;5052508;28;20079;-65
2022/01/09 01:17:06;;;;;;;17.85;12.30;;;22.30;27.30;;;;;;5051998;28;20072;-65
2022/01/09 01:19:33;;;;;;;16.77;12.60;;;22.20;27.30;;;;;;5050383;28;20041;-65
2022/01/09 01:22:20;;;;;;;16.50;11.85;;;22.20;27.30;;;;;;5050855;28;20053;-65
2022/01/09 01:24:48;;;;;;;18.80;13.55;;;22.20;27.30;;;;;;5052606;28;20068;-64
2022/01/09 01:27:15;;;;;;;16.50;11.90;;;22.20;27.30;;;;;;5051895;28;20107;-65
2022/01/09 01:29:42;;;;;;;18.52;12.48;;;22.20;27.30;;;;;;5049852;28;20094;-65
2022/01/09 01:32:09;;;;;;;17.33;11.63;;;22.20;27.30;;;;;;5050151;28;20401;-65
2022/01/09 01:34:36;;;;;;;15.68;11.35;;;22.20;27.30;;;;;;5052294;28;20073;-65
2022/01/09 01:37:04;;;;;;;17.85;12.40;;;22.20;27.30;;;;;;5051512;28;20107;-65
2022/01/09 01:39:31;;;;;;;17.50;12.90;;;22.20;27.40;;;;;;5049863;28;20126;-65
2022/01/09 01:41:59;;;;;;;18.00;11.60;;;22.20;27.40;;;;;;5049941;28;20088;-65
2022/01/09 01:44:45;;;;;;;16.23;11.55;;;22.20;27.40;;;;;;5051898;28;20539;-65
2022/01/09 01:47:14;;;;;;;17.65;12.65;;;22.20;27.40;;;;;;5052044;28;20110;-65
2022/01/09 01:49:42;;;;;;;15.65;11.38;;;22.20;27.40;;;;;;5050125;28;20057;-65
2022/01/09 01:52:09;;;;;;;15.27;11.38;;;22.20;27.40;;;;;;5048564;28;20270;-65
2022/01/09 01:54:39;;;;;;;14.75;11.70;;;22.10;27.30;;;;;;5052137;28;20103;-65
2022/01/09 01:57:07;;;;;;;15.32;11.52;;;22.20;27.40;;;;;;5051823;28;20052;-65
2022/01/09 01:59:35;;;;;;;15.63;10.75;;;22.20;27.40;;;;;;5049689;28;20049;-65
2022/01/09 02:02:03;;;;;;;17.70;12.85;;;22.10;27.30;;;;;;5049356;28;20349;-65
2022/01/09 02:04:30;;;;;;;15.35;10.45;;;22.10;27.30;;;;;;5051368;28;20494;-65
2022/01/09 02:06:58;;;;;;;16.95;11.02;;;22.10;27.40;;;;;;5051369;28;20045;-64
2022/01/09 02:09:26;;;;;;;14.18;10.80;;;22.10;27.40;;;;;;5049580;28;20079;-65
2022/01/09 02:11:53;;;;;;;14.60;11.05;;;22.10;27.40;;;;;;5049154;28;20559;-65
2022/01/09 02:14:20;;;;;;;14.90;10.55;;;22.10;27.40;;;;;;5083671;28;20056;-65
2022/01/09 02:16:49;;;;;;;13.40;10.27;;;22.10;27.40;;;;;;5051197;28;20155;-65
2022/01/09 02:19:20;;;;;;;12.00;9.63;;;22.10;27.40;;;;;;5048727;28;20466;-65
2022/01/09 02:21:47;;;;;;;15.07;10.40;;;22.10;27.40;;;;;;5048756;28;20618;-64
2022/01/09 02:24:15;;;;;;;15.18;10.15;;;22.10;27.40;;;;;;5051048;28;20449;-65
2022/01/09 02:26:42;;;;;;;14.07;10.55;;;22.10;27.40;;;;;;5051048;28;20084;-65
2022/01/09 02:29:10;;;;;;;14.30;10.30;;;22.10;27.40;;;;;;5049111;28;20048;-65
2022/01/09 02:31:38;;;;;;;14.55;10.07;;;22.10;27.40;;;;;;5048769;28;20107;-64
2022/01/09 02:34:05;;;;;;;13.63;10.48;;;22.10;27.40;;;;;;5050537;28;20209;-65
2022/01/09 02:36:32;;;;;;;11.73;8.82;;;22.10;27.40;;;;;;5050684;28;20095;-65
2022/01/09 02:39:00;;;;;;;13.15;9.82;;;22.10;27.40;;;;;;5048886;28;20575;-65
2022/01/09 02:41:27;;;;;;;12.57;9.77;;;22.10;27.40;;;;;;5048208;28;20068;-65
2022/01/09 02:43:55;;;;;;;12.57;9.95;;;22.10;27.60;;;;;;5050284;28;20056;-65
2022/01/09 02:46:42;;;;;;;12.55;9.80;;;22.10;27.40;;;;;;5050864;28;20486;-65
2022/01/09 02:49:09;;;;;;;13.90;9.93;;;22.10;27.40;;;;;;5048778;28;20155;-65
2022/01/09 02:51:39;;;;;;;13.68;9.63;;;22.10;27.40;;;;;;5048613;28;20055;-65
2022/01/09 02:56:54;;;;;;;14.15;9.80;;;22.10;27.40;;;;;;5050275;28;20041;-65
2022/01/09 02:59:21;;;;;;;15.50;10.02;;;22.10;27.40;;;;;;5048477;28;20057;-65
2022/01/09 03:01:48;;;;;;;11.60;9.07;;;22.10;27.40;;;;;;5047889;28;20102;-65
2022/01/09 03:04:16;;;;;;;14.07;9.90;;;22.10;27.40;;;;;;5050197;28;20108;-65
2022/01/09 03:06:43;;;;;;;12.48;9.50;;;22.10;27.40;;;;;;5050136;28;20168;-65
2022/01/09 03:09:11;;;;;;;12.77;9.05;;;22.00;27.40;;;;;;5048277;28;20577;-65
2022/01/09 03:11:39;;;;;;;13.07;8.65;;;22.10;27.40;;;;;;5046476;28;20095;-65
2022/01/09 03:14:07;;;;;;;13.50;9.48;;;22.10;27.40;;;;;;5049826;28;20045;-65
2022/01/09 03:16:35;;;;;;;12.50;8.90;;;22.00;27.40;;;;;;5049991;28;20088;-65
2022/01/09 03:19:02;;;;;;;12.32;8.77;;;22.00;27.40;;;;;;5048167;28;20083;-64
2022/01/09 03:21:30;;;;;;;11.43;8.35;;;22.00;27.40;;;;;;5047854;28;20381;-65
2022/01/09 03:23:57;;;;;;;11.15;8.48;;;22.00;27.40;;;;;;5049672;28;20072;-65
2022/01/09 03:26:24;;;;;;;12.55;9.30;;;22.00;27.40;;;;;;5050085;28;20084;-65
2022/01/09 03:28:51;;;;;;;12.70;9.05;;;22.00;27.40;;;;;;5048188;28;20053;-65
2022/01/09 03:31:19;;;;;;;12.00;8.38;;;22.00;27.40;;;;;;5047433;28;20076;-65
2022/01/09 03:33:46;;;;;;;12.55;9.40;;;22.00;27.50;;;;;;5048826;28;20056;-65
2022/01/09 03:36:13;;;;;;;12.85;8.95;;;22.00;27.50;;;;;;5050009;28;20162;-65
2022/01/09 03:38:40;;;;;;;12.43;8.93;;;22.00;27.40;;;;;;5048177;28;20118;-64
2022/01/09 03:41:07;;;;;;;11.70;8.77;;;22.00;27.50;;;;;;5047495;28;20045;-65
2022/01/09 03:43:34;;;;;;;11.50;7.97;;;21.90;27.40;;;;;;5048983;28;20573;-65
2022/01/09 03:46:03;;;;;;;12.95;9.55;;;21.90;27.50;;;;;;5048977;28;20123;-65
2022/01/09 03:48:32;;;;;;;10.50;7.82;;;21.90;27.40;;;;;;5046602;28;20091;-65
2022/01/09 03:50:59;;;;;;;12.68;8.57;;;22.00;27.50;;;;;;5047610;28;20214;-65
2022/01/09 03:53:26;;;;;;;11.73;8.32;;;21.90;27.40;;;;;;5048182;28;20100;-65
2022/01/09 03:55:55;;;;;;;12.25;8.88;;;22.00;27.50;;;;;;5049368;28;20551;-65
2022/01/09 03:58:23;;;;;;;10.68;7.68;;;21.90;27.50;;;;;;5047635;28;20098;-66
2022/01/09 04:00:50;;;;;;;11.73;8.45;;;21.90;27.50;;;;;;5047091;28;20076;-65
2022/01/09 04:03:17;;;;;;;9.32;8.23;;;21.90;27.50;;;;;;5048235;28;20057;-65
2022/01/09 04:05:45;;;;;;;9.25;7.38;;;21.90;27.50;;;;;;5049242;28;20477;-64
2022/01/09 04:08:12;;;;;;;10.55;7.63;;;21.90;27.50;;;;;;5048181;28;20045;-65
2022/01/09 04:10:42;;;;;;;11.63;8.32;;;21.90;27.50;;;;;;5047137;28;20114;-65
2022/01/09 04:13:13;;;;;;;12.23;8.60;;;21.90;27.50;;;;;;5048251;28;20064;-65
2022/01/09 04:15:46;;;;;;;10.90;7.90;;;21.90;27.50;;;;;;5048782;28;20045;-65
2022/01/09 04:18:22;;;;;;;10.30;7.95;;;21.90;27.50;;;;;;5047747;28;20140;-65
2022/01/09 04:20:51;;;;;;;9.70;7.70;;;21.90;27.50;;;;;;5047239;28;20052;-65
2022/01/09 04:23:20;;;;;;;9.05;7.18;;;21.90;27.50;;;;;;5048124;28;20094;-65
2022/01/09 04:25:48;;;;;;;10.07;7.68;;;21.90;27.50;;;;;;5047983;28;20136;-65
2022/01/09 04:28:16;;;;;;;10.85;7.53;;;21.90;27.50;;;;;;5047953;28;20390;-65
2022/01/09 04:30:43;;;;;;;8.88;7.30;;;22.00;27.50;;;;;;5047040;28;20048;-65
2022/01/09 04:33:11;;;;;;;10.73;7.85;;;21.90;27.40;;;;;;5047886;28;20072;-65
2022/01/09 04:35:39;;;;;;;9.68;7.55;;;22.00;27.50;;;;;;5047818;28;20451;-65
2022/01/09 04:38:07;;;;;;;10.02;7.32;;;22.00;27.50;;;;;;5048102;28;20081;-65
2022/01/09 04:40:35;;;;;;;10.95;7.40;;;22.00;27.50;;;;;;5046690;28;20474;-65
2022/01/09 04:43:05;;;;;;;9.93;6.70;;;22.00;27.50;;;;;;5047972;28;20099;-65
2022/01/09 04:45:33;;;;;;;9.43;7.05;;;22.00;27.40;;;;;;5049107;28;20478;-66
2022/01/09 04:48:03;;;;;;;10.30;7.65;;;21.90;27.40;;;;;;5048156;28;20083;-65
2022/01/09 04:50:33;;;;;;;9.25;6.93;;;21.90;27.40;;;;;;5046841;28;20045;-65
2022/01/09 04:53:05;;;;;;;9.98;7.32;;;21.90;27.40;;;;;;5047740;28;20418;-65
2022/01/09 04:55:34;;;;;;;10.93;7.10;;;21.90;27.50;;;;;;5049085;28;20049;-65
2022/01/09 04:58:02;;;;;;;10.77;7.55;;;21.90;27.50;;;;;;5048284;28;20072;-65
2022/01/09 05:00:29;;;;;;;8.18;6.38;;;21.90;27.50;;;;;;5046455;28;20136;-65
2022/01/09 05:02:56;;;;;;;9.30;6.88;;;21.90;27.50;;;;;;5047212;28;20053;-65
2022/01/09 05:05:24;;;;;;;8.63;6.07;;;21.90;27.50;;;;;;5048718;28;20049;-65
2022/01/09 05:07:51;;;;;;;8.25;6.50;;;21.90;27.50;;;;;;5047610;28;20136;-65
2022/01/09 05:10:19;;;;;;;9.10;7.07;;;21.90;27.50;;;;;;5046693;28;20114;-65
2022/01/09 05:12:46;;;;;;;9.50;6.55;;;21.90;27.50;;;;;;5047054;28;20495;-65
2022/01/09 05:15:15;;;;;;;9.02;6.53;;;21.80;27.50;;;;;;5049299;28;20122;-65
2022/01/09 05:17:42;;;;;;;8.50;6.60;;;21.90;27.50;;;;;;5047827;28;20049;-65
2022/01/09 05:20:10;;;;;;;8.77;6.78;;;21.80;27.50;;;;;;5046455;28;20045;-65
2022/01/09 05:22:38;;;;;;;9.00;6.40;;;21.90;27.50;;;;;;5046056;28;20134;-65
2022/01/09 05:25:06;;;;;;;9.02;6.82;;;21.80;27.50;;;;;;5048510;28;20519;-65
2022/01/09 05:27:37;;;;;;;8.55;6.47;;;21.80;27.50;;;;;;5050263;28;20099;-65
2022/01/09 05:30:05;;;;;;;7.97;5.93;;;21.80;27.50;;;;;;5049864;28;20345;-65
2022/01/09 05:32:33;;;;;;;6.93;5.72;;;21.80;27.50;;;;;;5050600;28;20064;-65
2022/01/09 05:35:00;;;;;;;7.78;6.25;;;21.80;27.50;;;;;;5052357;28;20450;-66
2022/01/09 05:37:28;;;;;;;8.73;6.47;;;21.80;27.50;;;;;;5051847;28;20094;-65
2022/01/09 05:39:55;;;;;;;9.30;6.57;;;21.80;27.50;;;;;;5050189;28;20126;-65
2022/01/09 05:42:22;;;;;;;8.52;6.25;;;21.80;27.50;;;;;;5049745;28;20056;-65
2022/01/09 05:44:50;;;;;;;7.22;5.85;;;21.80;27.50;;;;;;5052371;28;20443;-65
2022/01/09 05:47:17;;;;;;;9.15;6.88;;;21.80;27.50;;;;;;5050768;28;20076;-65
2022/01/09 05:49:44;;;;;;;7.45;6.22;;;21.80;27.50;;;;;;5049665;28;20140;-66
2022/01/09 05:52:11;;;;;;;7.57;5.60;;;21.80;27.50;;;;;;5050069;28;20128;-65
2022/01/09 05:54:38;;;;;;;8.10;6.13;;;21.80;27.50;;;;;;5051744;28;20390;-65
2022/01/09 05:57:06;;;;;;;6.97;5.55;;;21.80;27.50;;;;;;5051589;28;20049;-65
2022/01/09 05:59:34;;;;;;;9.00;6.90;;;21.80;27.50;;;;;;5048396;28;20119;-65
2022/01/09 06:02:01;;;;;;;9.30;6.30;;;21.80;27.60;;;;;;5049858;28;20045;-65
2022/01/09 06:04:28;;;;;;;8.13;6.03;;;21.80;27.60;;;;;;5052150;28;20056;-65
2022/01/09 06:06:55;;;;;;;7.50;6.15;;;21.80;27.60;;;;;;5051280;28;20491;-65
2022/01/09 06:09:23;;;;;;;9.13;6.88;;;21.80;27.50;;;;;;5049489;28;20083;-66
2022/01/09 06:11:50;;;;;;;8.38;6.68;;;21.80;27.40;;;;;;5049185;28;20449;-66
2022/01/09 06:14:17;;;;;;;8.07;6.20;;;21.70;27.40;;;;;;5051808;28;20075;-65
2022/01/09 06:16:44;;;;;;;8.32;6.55;;;21.70;27.30;;;;;;5051331;28;20048;-66
2022/01/09 06:19:11;;;;;;;10.35;7.57;;;21.70;27.30;;;;;;5048944;28;20198;-64
2022/01/09 06:21:39;;;;;;;8.88;6.70;;;21.70;27.30;;;;;;5049215;28;20486;-65
2022/01/09 06:24:06;;;;;;;9.45;7.18;;;21.70;27.20;;;;;;5050619;28;20130;-65
2022/01/09 06:26:33;;;;;;;8.52;7.00;;;21.70;27.20;;;;;;5051709;28;20072;-65
2022/01/09 06:29:00;;;;;;;8.77;7.22;;;21.70;27.10;;;;;;5049146;28;20052;-66
2022/01/09 06:31:27;;;;;;;9.35;7.55;;;21.70;27.10;;;;;;5048548;28;20045;-65
2022/01/09 06:33:55;;;;;;;10.35;7.10;;;21.70;27.00;;;;;;5050672;28;20052;-65
2022/01/09 06:36:22;;;;;;;10.25;7.57;;;21.80;27.00;;;;;;5050811;28;20088;-65
2022/01/09 06:38:49;;;;;;;10.85;8.27;;;21.80;27.00;;;;;;5049301;28;20079;-66
2022/01/09 06:41:16;;;;;;;10.55;7.88;;;21.80;26.90;;;;;;5049021;28;20045;-65
2022/01/09 06:43:44;;;;;;;8.88;7.07;;;21.90;26.90;;;;;;5050011;28;20102;-65
2022/01/09 06:46:11;;;;;;;11.70;7.60;;;21.90;26.80;;;;;;5050772;28;20049;-65
2022/01/09 06:48:39;;;;;;;9.48;7.20;;;22.00;26.80;;;;;;5048806;28;20487;-65
2022/01/09 06:51:06;;;;;;;10.00;7.60;;;22.00;26.70;;;;;;5047750;28;20053;-65
2022/01/09 06:53:33;;;;;;;11.40;7.20;;;22.00;26.70;;;;;;5049753;28;20052;-66
2022/01/09 06:56:00;;;;;;;10.10;7.60;;;22.10;26.70;;;;;;5051050;28;20176;-65
2022/01/09 06:58:27;;;;;;;10.50;8.02;;;22.10;26.60;;;;;;5049348;28;20045;-65
2022/01/09 07:00:54;;;;;;;9.40;7.40;;;22.20;26.60;;;;;;5048486;28;20215;-65
2022/01/09 07:03:22;;;;;;;11.05;8.05;;;22.20;26.60;;;;;;5048074;28;20136;-65
2022/01/09 07:05:51;;;;;;;9.23;7.40;;;22.20;26.50;;;;;;5050356;28;20048;-65
2022/01/09 07:08:18;;;;;;;11.77;8.43;;;22.30;26.50;;;;;;5049496;28;20468;-65
2022/01/09 07:10:46;;;;;;;11.07;8.57;;;22.30;26.40;;;;;;5046893;28;20044;-65
2022/01/09 07:13:17;;;;;;;9.50;7.65;;;22.30;26.40;;;;;;5049000;28;20076;-65
2022/01/09 07:15:44;;;;;;;11.35;9.13;;;22.40;26.40;;;;;;5050905;28;20049;-65
2022/01/09 07:18:12;;;;;;;10.13;8.38;;;22.40;26.30;;;;;;5049007;28;20072;-66
2022/01/09 07:20:39;;;;;;;10.93;8.45;;;22.40;26.20;;;;;;5046935;28;20107;-65
2022/01/09 07:23:07;;;;;;;12.65;9.00;;;22.50;26.20;;;;;;5049044;28;20571;-65
2022/01/09 07:25:35;;;;;;;10.38;8.55;;;22.60;26.20;;;;;;5048999;28;20080;-65
2022/01/09 07:28:02;;;;;;;11.85;10.15;;;22.60;26.20;;;;;;5049310;28;20457;-66
2022/01/09 07:30:30;;;;;;;12.18;9.38;;;22.60;26.10;;;;;;5047526;28;20541;-65
2022/01/09 07:32:58;;;;;;;13.48;9.95;;;22.70;26.10;;;;;;5048693;28;20110;-66
2022/01/09 07:35:26;;;;;;;13.50;10.43;;;22.70;26.00;;;;;;5049836;28;20060;-65
2022/01/09 07:37:53;;;;;;;14.57;11.43;;;22.80;26.00;;;;;;5049019;28;20083;-65
2022/01/09 07:40:21;;;;;;;14.32;11.50;;;22.80;26.00;;;;;;5046536;28;20174;-65
2022/01/09 07:42:48;;;;;;;14.55;11.55;;;22.80;25.90;;;;;;5048025;28;20217;-65
2022/01/09 07:45:22;;;;;;;16.20;12.23;;;22.90;25.90;;;;;;5049905;28;20111;-65
2022/01/09 07:47:50;;;;;;;18.63;13.32;;;22.90;25.90;;;;;;5049017;28;20045;-65
2022/01/09 07:50:18;;;;;;;17.98;13.60;;;22.90;25.90;;;;;;5047064;28;20307;-66
2022/01/09 07:52:45;;;;;;;18.45;14.00;;;23.00;25.90;;;;;;5047864;28;20052;-65
2022/01/09 07:55:12;;;;;;;16.58;12.80;;;23.00;25.80;;;;;;5048578;28;20102;-65
2022/01/09 07:57:40;;;;;;;18.60;14.05;;;23.10;26.30;;;;;;5048980;28;20049;-65
2022/01/09 08:00:09;;;;;;;18.50;14.07;;;23.10;25.80;;;;;;5047112;28;20052;-65
2022/01/09 08:02:37;;;;;;;19.23;14.75;;;23.20;25.80;;;;;;5047989;28;20045;-65
2022/01/09 08:05:05;;;;;;;19.05;14.27;;;23.20;25.70;;;;;;5049493;28;20454;-66
2022/01/09 08:07:32;;;;;;;19.67;15.50;;;23.20;25.70;;;;;;5048412;28;20049;-65
2022/01/09 08:10:00;;;;;;;20.48;15.07;;;23.30;25.70;;;;;;5047740;28;20044;-65
2022/01/09 08:12:28;;;;;;;21.40;15.52;;;23.30;25.60;;;;;;5047469;28;20051;-65
2022/01/09 08:14:55;;;;;;;19.25;15.02;;;23.40;25.70;;;;;;5049530;28;20194;-65
2022/01/09 08:17:23;;;;;;;18.73;14.30;;;23.40;25.60;;;;;;5048975;28;20279;-66
2022/01/09 08:19:50;;;;;;;20.35;15.35;;;23.50;25.60;;;;;;5046566;28;20236;-65
2022/01/09 08:22:17;;;;;;;19.85;15.25;;;23.50;25.60;;;;;;5047214;28;20041;-65
2022/01/09 08:24:45;;;;;;;18.63;14.93;;;23.50;25.50;;;;;;5049109;28;20056;-65
2022/01/09 08:27:12;;;;;;;21.60;15.70;;;23.50;25.40;;;;;;5049344;28;20068;-66
2022/01/09 08:29:39;;;;;;;20.17;15.90;;;23.60;25.50;;;;;;5046624;28;20118;-65
2022/01/09 08:32:07;;;;;;;19.20;15.82;;;23.60;25.40;;;;;;5045964;28;20049;-66
2022/01/09 08:34:35;;;;;;;18.67;15.65;;;23.60;25.40;;;;;;5049401;28;20110;-65
2022/01/09 08:37:02;;;;;;;19.65;15.43;;;23.60;25.40;;;;;;5047978;28;20045;-65
2022/01/09 08:39:30;;;;;;;21.50;16.27;;;23.70;25.40;;;;;;5047080;28;20084;-65
2022/01/09 08:41:57;;;;;;;21.92;16.77;;;23.70;25.30;;;;;;5045602;28;20045;-65
2022/01/09 08:44:24;;;;;;;20.90;15.98;;;23.80;25.30;;;;;;5048987;28;20049;-66
2022/01/09 08:46:51;;;;;;;20.40;16.38;;;23.80;25.30;;;;;;5049636;28;20045;-66
2022/01/09 08:49:18;;;;;;;20.50;16.88;;;23.90;25.20;;;;;;5046739;28;20053;-66
2022/01/09 08:51:45;;;;;;;22.33;16.30;;;23.90;25.20;;;;;;5046826;28;20107;-66
2022/01/09 08:54:13;;;;;;;20.27;16.27;;;23.90;25.10;;;;;;5048538;28;20056;-66
2022/01/09 08:56:41;;;;;;;21.83;16.20;;;24.00;25.10;;;;;;5049183;28;20056;-65
2022/01/09 08:59:08;;;;;;;20.35;15.60;;;24.00;25.10;;;;;;5047084;28;20279;-66
2022/01/09 09:01:44;;;;;;;19.67;15.20;;;24.10;25.10;;;;;;5048613;28;20053;-66
2022/01/09 09:04:11;;;;;;;18.67;15.10;;;24.10;25.00;;;;;;5052897;28;20491;-65
2022/01/09 09:06:39;;;;;;;17.77;14.57;;;24.10;25.00;;;;;;5052629;28;20463;-66
2022/01/09 09:09:07;;;;;;;18.02;14.60;;;24.20;25.00;;;;;;5050987;28;20165;-66
2022/01/09 09:11:35;;;;;;;17.58;14.45;;;24.20;25.00;;;;;;5050520;28;20095;-65
2022/01/09 09:14:03;;;;;;;16.45;13.95;;;24.30;25.00;;;;;;5052301;28;20044;-65
2022/01/09 09:16:32;;;;;;;18.27;14.05;;;24.30;25.00;;;;;;5052789;28;20102;-66
2022/01/09 09:18:59;;;;;;;17.48;13.80;;;24.30;24.90;;;;;;5050266;28;20044;-66
2022/01/09 09:21:26;;;;;;;17.13;13.10;;;24.30;24.90;;;;;;5050381;28;20501;-66
2022/01/09 09:23:53;;;;;;;16.25;13.75;;;24.30;24.80;;;;;;5051829;28;20088;-66
2022/01/09 09:26:21;;;;;;;15.30;13.05;;;24.40;24.90;;;;;;5052585;28;20487;-65
2022/01/09 09:28:49;;;;;;;15.02;12.10;;;24.40;24.80;;;;;;5050574;28;20184;-66
2022/01/09 09:31:17;;;;;;;14.65;12.45;;;24.50;24.80;;;;;;5049596;28;20052;-67
2022/01/09 09:33:44;;;;;;;14.07;11.93;;;24.50;24.80;;;;;;5051690;28;20060;-66
2022/01/09 09:36:12;;;;;;;14.73;11.45;;;24.50;24.70;;;;;;5052395;28;20049;-66
2022/01/09 09:38:39;;;;;;;14.32;11.35;;;24.50;24.70;;;;;;5050275;28;20140;-66
2022/01/09 09:41:06;;;;;;;14.88;11.88;;;24.60;24.70;;;;;;5050334;28;20064;-65
2022/01/09 09:43:33;;;;;;;14.18;11.57;;;24.60;24.60;;;;;;5051378;28;20159;-66
2022/01/09 09:46:02;;;;;;;14.73;11.40;;;24.60;24.60;;;;;;5051265;28;20068;-66
2022/01/09 09:48:29;;;;;;;12.25;10.30;;;24.70;24.50;;;;;;5050214;28;20045;-66
2022/01/09 09:50:57;;;;;;;13.35;10.85;;;24.80;24.50;;;;;;5049627;28;20045;-66
2022/01/09 09:53:24;;;;;;;13.48;10.98;;;24.80;24.50;;;;;;5051184;28;20048;-66
2022/01/09 09:55:53;;;;;;;12.77;10.15;;;24.80;24.40;;;;;;5051893;28;20406;-66
2022/01/09 09:58:22;;;;;;;11.70;10.43;;;24.80;24.40;;;;;;5050478;28;20052;-67
2022/01/09 10:00:54;;;;;;;12.90;10.43;;;24.90;24.40;;;;;;5049539;28;20080;-66
2022/01/09 10:03:33;;;;;;;12.18;9.65;;;24.90;24.30;;;;;;5050780;28;20041;-66
2022/01/09 10:06:01;;;;;;;11.45;9.32;;;24.90;24.30;;;;;;5051580;28;20055;-66
2022/01/09 10:08:39;;;;;;;10.98;9.80;;;25.00;24.30;;;;;;5050157;28;20076;-66
2022/01/09 10:11:17;;;;;;;11.70;10.02;;;25.00;24.20;;;;;;5047995;28;20635;-66
2022/01/09 10:13:45;;;;;;;10.55;9.25;;;25.00;24.20;;;;;;5049019;28;20122;-65
2022/01/09 10:16:14;;;;;;;10.88;8.98;;;25.10;24.20;;;;;;5051560;28;20075;-66
2022/01/09 10:18:49;;;;;;;11.75;8.63;;;25.10;24.20;;;;;;5049601;28;20045;-66
2022/01/09 10:21:19;;;;;;;10.68;9.40;;;25.10;24.20;;;;;;5049058;28;20057;-66
2022/01/09 10:24:06;;;;;;;10.70;9.10;;;25.10;24.20;;;;;;5051265;28;20430;-66
2022/01/09 10:26:36;;;;;;;12.65;9.20;;;25.10;24.10;;;;;;5051288;28;20049;-66
2022/01/09 10:29:06;;;;;;;11.50;9.38;;;25.20;24.20;;;;;;5049661;28;20486;-66
2022/01/09 10:31:46;;;;;;;9.25;8.25;;;25.20;24.10;;;;;;5048639;28;20561;-66
2022/01/09 10:34:19;;;;;;;9.30;8.20;;;25.20;24.10;;;;;;5051269;28;20049;-66
2022/01/09 10:36:51;;;;;;;10.10;8.18;;;25.20;24.10;;;;;;5050848;28;20399;-66
2022/01/09 10:39:36;;;;;;;9.65;8.00;;;25.30;24.10;;;;;;5048969;28;20059;-66
2022/01/09 10:42:04;;;;;;;9.70;8.13;;;25.30;24.10;;;;;;5048494;28;20652;-66
2022/01/09 10:44:35;;;;;;;10.15;8.82;;;25.30;24.00;;;;;;5050974;28;20544;-66
2022/01/09 10:47:05;;;;;;;9.98;8.00;;;25.30;24.00;;;;;;5051302;28;20045;-66
2022/01/09 10:49:40;;;;;;;10.13;8.77;;;25.40;24.00;;;;;;5048145;28;20095;-66
2022/01/09 10:52:26;;;;;;;8.55;7.63;;;25.40;24.40;;;;;;5049013;28;20052;-66
2022/01/09 10:55:03;;;;;;;9.88;8.18;;;25.40;23.90;;;;;;5050435;28;20056;-66
2022/01/09 10:57:33;;;;;;;10.27;8.52;;;25.40;23.90;;;;;;5050285;28;20099;-67
2022/01/09 11:00:14;;;;;;;10.27;8.63;;;25.40;23.90;;;;;;5048015;28;20436;-66
2022/01/09 11:02:44;;;;;;;9.13;7.20;;;25.40;23.90;;;;;;5049075;28;20088;-65
2022/01/09 11:05:12;;;;;;;8.30;7.45;;;25.40;23.80;;;;;;5050621;28;20496;-65
2022/01/09 11:07:45;;;;;;;8.95;7.93;;;25.50;23.80;;;;;;5049468;28;20287;-65
2022/01/09 11:10:16;;;;;;;9.43;7.80;;;25.50;23.80;;;;;;5048833;28;20044;-65
2022/01/09 11:12:48;;;;;;;8.30;7.43;;;25.50;23.80;;;;;;5048864;28;20045;-65
2022/01/09 11:15:21;;;;;;;9.00;7.55;;;25.50;23.80;;;;;;5050432;28;20482;-65
2022/01/09 11:17:49;;;;;;;9.05;7.60;;;25.60;23.80;;;;;;5049368;28;20597;-65
2022/01/09 11:20:17;;;;;;;8.15;6.82;;;25.60;23.80;;;;;;5048035;28;20052;-65
2022/01/09 11:22:47;;;;;;;8.82;7.30;;;25.70;23.80;;;;;;5048991;28;20103;-65
2022/01/09 11:25:35;;;;;;;;;;;25.60;23.70;;;;;;5049703;28;20048;-65
2022/01/09 11:28:23;;;;;;;9.55;7.28;;;25.70;23.70;;;;;;5047871;28;19967;-65
2022/01/09 11:31:27;;;;;;;8.02;7.18;;;25.70;23.70;;;;;;5047898;28;20213;-65
2022/01/09 11:34:34;;;;;;;8.57;7.07;;;25.70;23.60;;;;;;5049687;28;20112;-65
2022/01/09 11:37:21;;;;;;;7.40;6.65;;;25.70;23.60;;;;;;5049877;28;20095;-64
2022/01/09 11:39:48;;;;;;;9.52;7.07;;;25.80;23.60;;;;;;5047930;28;20080;-65
2022/01/09 11:42:16;;;;;;;7.43;6.60;;;25.80;23.60;;;;;;5047571;28;20124;-65
2022/01/09 11:44:53;;;;;;;7.65;6.70;;;25.80;23.50;;;;;;5050213;28;20045;-65
2022/01/09 11:47:22;;;;;;;8.85;6.70;;;25.80;23.50;;;;;;5048260;28;20045;-65
2022/01/09 11:50:06;;;;;;;8.68;6.60;;;25.90;23.50;;;;;;5047853;28;20049;-65
2022/01/09 11:52:53;;;;;;;7.85;6.53;;;25.90;23.50;;;;;;5048146;28;20045;-65
2022/01/09 11:55:41;;;;;;;7.18;6.45;;;25.90;23.50;;;;;;5049437;28;20486;-65
2022/01/09 11:58:10;;;;;;;7.07;6.40;;;25.90;23.40;;;;;;5048650;28;20115;-65
2022/01/09 12:00:42;;;;;;;7.78;6.35;;;25.90;23.40;;;;;;5047014;28;20547;-66
2022/01/09 12:03:34;;;;;;;7.28;6.57;;;25.90;23.40;;;;;;5046989;28;20049;-65
2022/01/09 12:06:09;;;;;;;8.05;6.55;;;25.90;23.40;;;;;;5049663;28;20472;-65
2022/01/09 12:09:07;;;;;;;6.90;6.13;;;26.00;23.40;;;;;;5047763;28;20049;-65
2022/01/09 12:12:05;;;;;;;6.75;6.00;;;26.00;23.40;;;;;;5045930;28;20556;-65
2022/01/09 12:14:54;;;;;;;6.75;6.05;;;26.00;23.40;;;;;;5049339;28;20071;-65
2022/01/09 12:17:45;;;;;;;7.75;6.47;;;26.00;23.40;;;;;;5048324;28;20448;-65
2022/01/09 12:20:27;;;;;;;6.90;6.03;;;26.00;23.40;;;;;;5046959;28;20204;-65
2022/01/09 12:23:04;;;;;;;6.60;5.65;;;26.00;23.40;;;;;;5047653;28;20213;-65
2022/01/09 12:25:40;;;;;;;6.93;6.22;;;25.90;23.30;;;;;;5049216;28;20075;-65
2022/01/09 12:28:20;;;;;;;6.97;5.75;;;26.00;23.40;;;;;;5048185;28;20123;-65
2022/01/09 12:30:55;;;;;;;6.97;5.82;;;26.00;23.40;;;;;;5046055;28;20110;-65
2022/01/09 12:33:49;;;;;;;6.25;5.65;;;26.00;23.40;;;;;;5048128;28;20132;-65
2022/01/09 12:36:20;;;;;;;6.18;5.32;;;26.00;23.40;;;;;;5050792;28;20128;-65
2022/01/09 12:38:51;;;;;;;7.40;6.07;;;26.00;23.40;;;;;;5051617;28;20114;-66
2022/01/09 12:41:22;;;;;;;7.78;6.30;;;26.00;23.30;;;;;;5051197;28;20452;-65
2022/01/09 12:43:57;;;;;;;8.95;6.10;;;26.00;23.30;;;;;;5052435;28;20131;-65
2022/01/09 12:46:24;;;;;;;6.70;6.00;;;26.00;23.30;;;;;;5053650;28;20407;-65
2022/01/09 12:48:58;;;;;;;7.43;6.18;;;26.00;23.30;;;;;;5051026;28;20091;-65
2022/01/09 12:51:30;;;;;;;7.03;6.32;;;26.00;23.30;;;;;;5050905;28;20053;-65